Terminal Aerodrome Forecast
Issued by NWS

Home | Current Version | Previous Version | Text Only | Print | Product List | Glossary On
Versions: 1 2 3 4 5 6 7 8 9 10 11 12 13 14 15 16 17 18 19
320
FTUS42 KMLB 081731
TAFFPR
TAF
KFPR 081731Z 0818/0918 34007KT P6SM SCT020 BKN120
      TEMPO 0818/0819 BKN020
     FM082100 36007KT P6SM SCT030 BKN120
     FM090300 34007KT P6SM BKN120
     FM090900 34008KT P6SM -RA BKN080 OVC120
     FM091500 34010KT P6SM -RA SCT030 BKN060 OVC100 PROB30 0915/0918
      5SM SHRA BKN035=

USA.gov is the U.S. government's official web portal to all federal, state and local government web resources and services.